East Ridge, Tennessee
Current Conditions -  °F | °C
As of 1:53 AM on Monday 24 Nov 2014 (Local Time) from KCHA Reporting Station
Broken Clouds Broken Clouds  
Wind Chill: 62°   Ceiling: 3600
Heat Index: 62°   Visibility: 10mi
Dew Point: 56°   Wind: 13mph
Humidity: 80%   Direction: 180°S
Pressure: 29.65"   Gusts: NA
Location:  35°N, 85.24°W
Report Text: KCHA 240653Z 18011KT 10SM BKN036 BKN042 17/13 A2965 RMK AO2 SLP037 T01670133
Loading
Personal Weather Stations






























Interactive Weather Map New forecast layout! Learn more

10-Day Weather Forecast

Advertisements
Track Severe Weather on mobile